Messwerte Frontone

Temperatur

Temperatur
°C
1593997200 3.00 3.00 20
1594000800 4.00 4.00 20
1594004400 5.00 5.00 20
1594008000 6.00 6.00
1594011600 7.00 7.00 21
1594015200 8.00 8.00 23
1594018800 9.00 9.00 24
1594022400 10.00 10.00 25
1594026000 11.00 11.00 25
1594029600 12.00 12.00
1594033200 13.00 13.00 27
1594036800 14.00 14.00 29
1594040400 15.00 15.00 29
1594044000 16.00 16.00 29
1594047600 17.00 17.00 29
1594051200 18.00 18.00
1594054800 19.00 19.00 29
1594058400 20.00 20.00 27
1594062000 21.00 21.00 26
1594065600 22.00 22.00 25
1594069200 23.00 23.00 24
1594072800 0.00 0.00 24
1594076400 1.00 1.00 23
1594080000 2.00 2.00 23

Aktuellste Messwerte

Wettercharakter
Wetter: meist klar
Temperatur
23 °C
Feuchtigkeit
50 %
Wind
5 km/hWindrichtung: Süd
Luftdruck
1009 hPa
Messzeit: 7. Juli 2020, 4.00Datenquelle: METAR

Weitere Messstationen in der Nähe

Messstation Temperatur Entfernung
Perugia 18 °C 52 km
Ancona 19 °C 53 km
Rimini 24 °C 57 km
Cervia 24 °C 85 km
Vaggio 17.7 °C 99 km
Ravenna Marino 26 °C 109 km
Monte Terminilo - 118 km

Wind

Windrichtung Böen Mittelwind
° km/h km/h
1593997200 3.00 2.00 - 3.00 190° 5
1594000800 4.00 3.00 - 4.00 170° 5
1594004400 5.00 4.00 - 5.00 170° 5
1594008000 6.00 5.00 - 6.00
1594011600 7.00 6.00 - 7.00 230° 5
1594015200 8.00 7.00 - 8.00 270° 5
1594018800 9.00 8.00 - 9.00 270° 5
1594022400 10.00 9.00 - 10.00 320° 5
1594026000 11.00 10.00 - 11.00 340° 5
1594029600 12.00 11.00 - 12.00
1594033200 13.00 12.00 - 13.00 360° 5
1594036800 14.00 13.00 - 14.00 0
1594040400 15.00 14.00 - 15.00 40° 5
1594044000 16.00 15.00 - 16.00 0
1594047600 17.00 16.00 - 17.00 60° 5
1594051200 18.00 17.00 - 18.00
1594054800 19.00 18.00 - 19.00 30° 5
1594058400 20.00 19.00 - 20.00 0
1594062000 21.00 20.00 - 21.00 180° 5
1594065600 22.00 21.00 - 22.00 220° 5
1594069200 23.00 22.00 - 23.00 220° 5
1594072800 0.00 23.00 - 0.00 210° 5
1594076400 1.00 0.00 - 1.00 230° 5
1594080000 2.00 1.00 - 2.00 270° 5

Ihre Wetterstation

Fehlt Ihre Wetterstation auf unserem Portal?

Schreiben Sie an network@meteonews.ch

Klima

Wann ist es am wärmsten? Wann regnet es am wenigsten? Unsere Klimadaten geben Auskunft.